Time;durP1;ratioP1;P1;durP2;ratioP2;P2;SDS_P1;SDS_P2;PMS_P1;PMS_P2;Temp;Humidity;BMP_temperature;BMP_pressure;BME280_temperature;BME280_humidity;BME280_pressure;Samples;Min_cycle;Max_cycle;Signal;HPM_P1;HPM_P2
2021/12/01 00:01:56;;;;;;;7.87;5.50;;;0.50;83.70;;;-0.02;60.15;94619.63;4998985;28;20510;-55
2021/12/01 00:04:23;;;;;;;6.37;3.90;;;0.40;83.80;;;-0.10;60.35;94614.03;4998695;28;20587;-57
2021/12/01 00:06:50;;;;;;;9.40;5.10;;;0.30;84.00;;;-0.16;60.04;94606.59;5000629;28;21027;-56
2021/12/01 00:09:18;;;;;;;7.03;4.20;;;0.30;84.20;;;-0.20;60.85;94610.28;5004748;28;20877;-58
2021/12/01 00:11:46;;;;;;;4.93;3.60;;;0.20;84.70;;;-0.24;60.66;94606.19;5003745;28;20481;-59
2021/12/01 00:14:14;;;;;;;4.93;4.07;;;0.20;84.90;;;-0.31;60.60;94597.06;5004999;28;20452;-56
2021/12/01 00:16:41;;;;;;;6.00;3.73;;;0.10;84.80;;;-0.35;60.58;94580.09;5002708;28;20601;-54
2021/12/01 00:19:08;;;;;;;6.10;4.30;;;0.10;85.00;;;-0.37;60.68;94586.16;5002968;28;20459;-57
2021/12/01 00:21:36;;;;;;;4.23;3.53;;;0.10;85.40;;;-0.38;61.09;94579.31;5007459;28;20495;-58
2021/12/01 00:24:03;;;;;;;4.07;3.70;;;0.00;85.40;;;-0.39;61.52;94575.06;5000870;28;20833;-58
2021/12/01 00:26:30;;;;;;;4.17;3.47;;;0.00;85.60;;;-0.40;61.31;94583.72;5004199;28;20473;-58
2021/12/01 00:28:59;;;;;;;6.50;3.77;;;0.00;85.80;;;-0.40;61.31;94578.56;4996530;28;20870;-58
2021/12/01 00:31:26;;;;;;;6.97;4.27;;;0.00;85.70;;;-0.39;60.71;94584.56;5005547;28;20470;-58
2021/12/01 00:33:53;;;;;;;5.40;4.00;;;0.00;85.60;;;-0.41;60.39;94579.47;5008699;28;20482;-56
2021/12/01 00:36:20;;;;;;;8.53;4.40;;;0.00;85.40;;;-0.43;60.82;94589.06;5006871;28;20469;-58
2021/12/01 00:38:48;;;;;;;3.97;3.57;;;0.00;85.50;;;-0.45;60.96;94569.38;5005734;28;20971;-57
2021/12/01 00:41:18;;;;;;;4.83;3.10;;;-0.10;85.40;;;-0.46;60.80;94576.31;5000096;28;21000;-58
2021/12/01 00:43:45;;;;;;;4.77;3.53;;;-0.10;85.40;;;-0.48;61.40;94580.72;5001993;28;20450;-59
2021/12/01 00:46:19;;;;;;;3.53;3.27;;;-0.10;85.70;;;-0.50;60.92;94556.69;5007943;28;20498;-58
2021/12/01 00:48:46;;;;;;;2.80;2.57;;;-0.10;85.50;;;-0.52;61.17;94560.31;5002389;28;20473;-54
2021/12/01 00:51:13;;;;;;;4.50;3.73;;;-0.10;86.00;;;-0.50;61.33;94553.28;5009524;28;20477;-56
2021/12/01 00:53:40;;;;;;;6.27;3.70;;;-0.10;86.40;;;-0.49;61.47;94557.56;5000891;28;20826;-59
2021/12/01 00:56:08;;;;;;;4.00;3.47;;;-0.10;86.60;;;-0.49;61.48;94553.22;5002395;28;21107;-59
2021/12/01 00:58:35;;;;;;;3.30;3.00;;;-0.10;86.50;;;-0.48;61.25;94561.78;5000931;28;21024;-58
2021/12/01 01:01:03;;;;;;;3.90;3.60;;;-0.10;86.10;;;-0.50;61.18;94567.03;5006732;28;20532;-58
2021/12/01 01:03:32;;;;;;;7.10;3.73;;;-0.10;86.10;;;-0.52;61.17;94552.56;5003980;28;20454;-56
2021/12/01 01:05:59;;;;;;;3.50;2.93;;;-0.10;86.10;;;-0.57;61.53;94545.88;5006776;28;21077;-58
2021/12/01 01:08:27;;;;;;;8.30;3.17;;;-0.10;85.90;;;-0.58;61.13;94546.78;5007783;28;20604;-58
2021/12/01 01:16:44;;;;;;;5.00;3.10;;;-0.20;86.70;;;-0.57;61.41;94545.03;5001075;28;20452;-59
2021/12/01 01:19:14;;;;;;;6.10;2.87;;;-0.20;86.30;;;-0.57;61.44;94555.38;5000602;28;20537;-59
2021/12/01 01:21:44;;;;;;;7.60;2.90;;;-0.20;86.30;;;-0.56;61.35;94551.84;5000783;28;20482;-57
2021/12/01 01:24:12;;;;;;;4.47;2.97;;;-0.20;86.30;;;-0.54;61.30;94547.47;5005011;28;20516;-54
2021/12/01 01:26:39;;;;;;;10.00;2.97;;;-0.10;86.70;;;-0.49;61.86;94558.38;5002722;28;20566;-55
2021/12/01 01:29:07;;;;;;;3.97;2.57;;;-0.10;87.30;;;-0.44;61.73;94564.13;5011051;28;20496;-54
2021/12/01 01:31:34;;;;;;;2.53;2.43;;;-0.10;87.30;;;-0.42;61.84;94564.03;4995672;28;20498;-58
2021/12/01 01:34:01;;;;;;;4.60;3.03;;;0.00;87.40;;;-0.40;61.55;94578.56;4997393;28;21013;-54
2021/12/01 01:36:30;;;;;;;5.33;2.50;;;0.00;87.60;;;-0.34;62.18;94589.47;4994960;28;20477;-59
2021/12/01 01:38:58;;;;;;;1.47;1.37;;;0.00;88.30;;;-0.25;61.51;94573.47;4993822;28;20457;-58
2021/12/01 01:41:25;;;;;;;2.20;1.70;;;0.10;87.20;;;-0.09;61.35;94565.75;5001673;28;20486;-58
2021/12/01 01:43:52;;;;;;;12.93;3.57;;;0.30;86.80;;;0.10;61.05;94573.34;5001714;28;20452;-55
2021/12/01 01:46:20;;;;;;;4.90;3.57;;;0.40;86.50;;;0.23;60.40;94570.91;5007957;28;20540;-57
2021/12/01 01:48:53;;;;;;;4.13;3.30;;;0.50;86.20;;;0.29;60.54;94555.88;5003185;28;20516;-58
2021/12/01 01:51:22;;;;;;;1.73;1.63;;;0.60;86.00;;;0.38;59.87;94549.34;5006945;28;20466;-56
2021/12/01 01:53:54;;;;;;;7.80;1.30;;;0.70;84.90;;;0.52;60.31;94536.47;5005968;28;20453;-56
2021/12/01 01:56:21;;;;;;;1.30;1.20;;;0.90;85.00;;;0.68;59.57;94540.75;5006377;28;20482;-57
2021/12/01 01:58:48;;;;;;;5.57;1.43;;;1.00;84.20;;;0.83;58.38;94545.06;4995561;28;20467;-58
2021/12/01 02:01:26;;;;;;;1.53;1.43;;;1.10;83.40;;;0.99;59.28;94551.94;4992421;28;20478;-58
2021/12/01 02:03:53;;;;;;;1.97;1.33;;;1.30;83.60;;;1.14;58.61;94548.44;5006378;28;20453;-58
2021/12/01 02:06:23;;;;;;;3.10;1.77;;;1.50;83.30;;;1.28;59.07;94557.97;4995002;28;20473;-58
2021/12/01 02:08:54;;;;;;;2.40;2.10;;;1.60;83.10;;;1.39;58.54;94540.03;5003577;28;20559;-56
2021/12/01 02:11:22;;;;;;;1.17;1.07;;;1.70;82.90;;;1.52;57.61;94552.22;5009519;28;20507;-56
2021/12/01 02:13:49;;;;;;;1.40;1.30;;;1.80;81.70;;;1.62;57.73;94555.94;5009760;28;20449;-58
2021/12/01 02:16:17;;;;;;;2.70;1.60;;;1.90;82.20;;;1.73;58.15;94557.88;5001291;28;20557;-57
2021/12/01 02:18:45;;;;;;;2.23;2.00;;;2.00;82.20;;;1.83;57.72;94558.13;5000166;28;20462;-59
2021/12/01 02:21:15;;;;;;;5.27;2.63;;;2.10;82.10;;;1.91;58.38;94561.09;5001452;28;20543;-57
2021/12/01 02:23:43;;;;;;;4.00;2.03;;;2.20;82.50;;;1.93;58.59;94554.06;4992627;28;20516;-56
2021/12/01 02:26:11;;;;;;;1.60;1.50;;;2.20;82.60;;;1.94;58.22;94553.13;4997790;28;20949;-54
2021/12/01 02:28:38;;;;;;;1.97;1.73;;;2.30;82.30;;;1.97;57.07;94527.00;4998072;28;20866;-54
2021/12/01 02:31:06;;;;;;;4.50;1.50;;;2.30;82.10;;;2.00;58.83;94536.34;5002997;28;20891;-54
2021/12/01 02:33:33;;;;;;;1.87;1.50;;;2.30;82.90;;;1.99;56.21;94514.78;4998441;28;20996;-59
2021/12/01 02:36:00;;;;;;;1.33;1.23;;;2.30;80.20;;;2.07;57.64;94527.25;5002947;28;20474;-54
2021/12/01 02:38:29;;;;;;;1.47;1.37;;;2.40;80.70;;;2.15;54.74;94518.06;5003751;28;20453;-54
2021/12/01 02:40:56;;;;;;;1.30;1.20;;;2.40;77.60;;;2.24;55.30;94533.97;5000156;28;20478;-54
2021/12/01 02:43:24;;;;;;;1.50;1.23;;;2.50;78.10;;;2.35;55.99;94531.50;5000382;28;20454;-57
2021/12/01 02:45:53;;;;;;;2.70;1.03;;;2.60;79.60;;;2.42;55.01;94517.22;4994941;28;20485;-58
2021/12/01 02:48:21;;;;;;;1.33;1.07;;;2.70;78.60;;;2.49;55.52;94517.66;5003119;28;20511;-56
2021/12/01 02:50:48;;;;;;;1.53;1.43;;;2.80;78.00;;;2.58;55.34;94516.22;5000206;28;20497;-58
2021/12/01 02:53:16;;;;;;;1.13;1.07;;;2.80;77.00;;;2.66;54.23;94539.91;5000429;28;20810;-59
2021/12/01 02:55:53;;;;;;;1.73;1.20;;;2.90;76.60;;;2.75;54.33;94536.72;4995378;28;20474;-59
2021/12/01 02:58:20;;;;;;;0.93;0.87;;;3.00;76.10;;;2.83;54.77;94547.41;5000449;28;20831;-54
2021/12/01 03:00:48;;;;;;;1.40;1.30;;;3.10;76.20;;;2.89;55.20;94541.00;5001586;28;20477;-59
2021/12/01 03:03:15;;;;;;;3.50;1.37;;;3.20;76.30;;;2.90;55.23;94536.63;5004518;28;20966;-59
2021/12/01 03:05:42;;;;;;;7.10;1.50;;;3.20;77.60;;;2.94;54.93;94532.91;5002386;28;20540;-58
2021/12/01 03:08:10;;;;;;;1.40;1.30;;;3.20;77.30;;;2.95;55.01;94534.56;5001914;28;20458;-55
2021/12/01 03:10:37;;;;;;;1.20;1.10;;;3.20;77.40;;;2.95;55.00;94547.56;5000388;28;20515;-54
2021/12/01 03:13:06;;;;;;;3.40;1.30;;;3.20;76.30;;;2.98;54.45;94557.75;5007487;28;20509;-55
2021/12/01 03:15:33;;;;;;;1.30;1.20;;;3.30;76.90;;;2.98;54.23;94527.41;5003278;28;20502;-54
2021/12/01 03:18:00;;;;;;;1.30;1.20;;;3.30;75.40;;;2.99;53.78;94530.81;5000391;28;20456;-58
2021/12/01 03:20:28;;;;;;;2.60;1.20;;;3.30;75.50;;;2.98;53.10;94534.38;5004400;28;20591;-59
2021/12/01 03:22:57;;;;;;;3.00;1.70;;;3.30;74.30;;;2.99;53.80;94542.06;5005058;28;20480;-56
2021/12/01 03:25:24;;;;;;;1.50;1.10;;;3.30;73.80;;;3.02;53.09;94556.59;5007088;28;20471;-58
2021/12/01 03:27:52;;;;;;;2.03;1.27;;;3.30;75.20;;;3.02;53.81;94554.84;5007628;28;20459;-57
2021/12/01 03:30:22;;;;;;;4.70;2.10;;;3.30;74.10;;;3.01;53.64;94560.97;5004068;28;20494;-58
2021/12/01 03:32:49;;;;;;;1.00;0.93;;;3.30;74.40;;;2.99;52.75;94556.78;5005196;28;20827;-57
2021/12/01 03:35:16;;;;;;;1.43;1.00;;;3.30;73.70;;;2.98;53.78;94570.75;5003210;28;20504;-58
2021/12/01 03:37:45;;;;;;;2.00;1.40;;;3.30;73.30;;;2.98;53.22;94570.75;5008531;28;20947;-55
2021/12/01 03:40:13;;;;;;;1.90;1.80;;;3.30;73.70;;;2.99;53.97;94587.97;5005010;28;20465;-55
2021/12/01 03:42:41;;;;;;;4.07;1.50;;;3.30;74.00;;;2.98;54.26;94586.31;5002232;28;20458;-57
2021/12/01 03:45:09;;;;;;;11.07;1.63;;;3.30;74.30;;;2.97;53.54;94584.66;5004627;28;20666;-56
2021/12/01 03:47:38;;;;;;;6.40;2.17;;;3.30;74.20;;;2.93;54.53;94585.78;5006324;28;20469;-54
2021/12/01 03:50:07;;;;;;;4.53;2.07;;;3.20;76.00;;;2.81;54.50;94571.84;5005550;28;20489;-53
2021/12/01 03:52:34;;;;;;;3.57;2.73;;;3.10;75.60;;;2.64;55.55;94583.31;5007352;28;20823;-58
2021/12/01 03:55:02;;;;;;;4.90;2.70;;;3.00;76.50;;;2.46;55.52;94570.59;4999823;28;21025;-60
2021/12/01 03:57:29;;;;;;;8.83;2.47;;;2.90;76.90;;;2.34;55.93;94576.56;5000840;28;20458;-59
2021/12/01 03:59:56;;;;;;;3.33;2.87;;;2.70;77.90;;;2.22;56.00;94572.16;5004754;28;20477;-54
2021/12/01 04:02:25;;;;;;;3.83;2.70;;;2.60;78.60;;;2.14;57.29;94575.25;5000961;28;20451;-58
2021/12/01 04:04:54;;;;;;;3.83;3.17;;;2.50;79.00;;;2.07;56.37;94574.78;5002503;28;20449;-54
2021/12/01 04:07:21;;;;;;;2.97;2.60;;;2.40;79.00;;;2.00;56.92;94583.88;5003801;28;20904;-55
2021/12/01 04:09:48;;;;;;;7.13;4.70;;;2.30;79.60;;;1.90;56.91;94578.41;5005100;28;20490;-58
2021/12/01 04:12:16;;;;;;;31.83;16.33;;;2.30;79.70;;;1.85;58.36;94571.84;5003263;28;20478;-54
2021/12/01 04:14:43;;;;;;;7.63;3.57;;;2.20;80.40;;;1.82;57.54;94564.28;5007479;28;20813;-56
2021/12/01 04:17:10;;;;;;;3.93;3.03;;;2.10;80.90;;;1.83;57.95;94565.91;5006611;28;20477;-59
2021/12/01 04:19:38;;;;;;;4.30;2.27;;;2.10;81.40;;;1.83;58.84;94565.91;5006648;28;20521;-57
2021/12/01 04:22:07;;;;;;;3.47;2.50;;;2.20;81.50;;;1.84;59.01;94557.22;5001712;28;20487;-58
2021/12/01 04:24:34;;;;;;;5.67;2.63;;;2.10;81.40;;;1.87;58.74;94557.03;4999329;28;20462;-58
2021/12/01 04:27:02;;;;;;;4.60;4.07;;;2.10;81.40;;;1.91;58.44;94551.56;5004604;28;20604;-56
2021/12/01 04:29:29;;;;;;;3.50;2.93;;;2.20;82.00;;;1.92;58.62;94555.81;5004563;28;20580;-57
2021/12/01 04:31:56;;;;;;;8.50;3.03;;;2.20;81.90;;;1.94;58.38;94555.72;5006391;28;20474;-55
2021/12/01 04:34:23;;;;;;;2.77;2.57;;;2.20;82.00;;;1.92;58.02;94555.81;5002244;28;20456;-55
2021/12/01 04:36:52;;;;;;;4.53;2.90;;;2.20;82.20;;;1.92;58.77;94555.81;5002485;28;21033;-56
2021/12/01 04:39:21;;;;;;;3.17;2.37;;;2.20;82.40;;;1.94;57.84;94566.09;5000434;28;20461;-56
2021/12/01 04:41:54;;;;;;;4.23;3.83;;;2.30;82.20;;;2.01;61.03;94569.16;5000798;28;20539;-55
2021/12/01 04:44:24;;;;;;;5.37;4.77;;;2.30;88.60;;;2.14;59.49;94568.28;4994198;28;21217;-54
2021/12/01 04:46:54;;;;;;;9.03;6.63;;;2.40;85.70;;;2.24;60.66;94575.47;5001448;28;20961;-54
2021/12/01 04:49:22;;;;;;;3.87;2.93;;;2.50;87.80;;;2.33;61.33;94577.50;4996416;28;20486;-57
2021/12/01 04:51:51;;;;;;;8.73;3.27;;;2.60;87.90;;;2.43;59.41;94585.53;4997099;28;20482;-53
2021/12/01 04:54:20;;;;;;;6.07;3.70;;;2.70;86.40;;;2.57;62.76;94582.03;4997305;28;20472;-55
2021/12/01 04:56:48;;;;;;;4.00;3.67;;;2.80;90.70;;;2.76;62.92;94585.13;5005415;28;20477;-55
2021/12/01 04:59:16;;;;;;;3.47;3.17;;;3.00;91.20;;;2.96;63.35;94593.38;5003031;28;20456;-56
2021/12/01 05:01:43;;;;;;;6.63;2.70;;;3.10;91.00;;;3.13;60.25;94592.25;5004609;28;20496;-56
2021/12/01 05:04:11;;;;;;;7.90;2.80;;;3.30;87.50;;;3.26;61.80;94592.28;5003470;28;20456;-56
2021/12/01 05:06:38;;;;;;;3.43;2.13;;;3.50;90.10;;;3.36;58.60;94582.94;5000743;28;20998;-55
2021/12/01 05:09:06;;;;;;;2.73;1.90;;;3.60;84.90;;;3.41;57.47;94588.66;4999047;28;20458;-54
2021/12/01 05:11:34;;;;;;;1.63;1.53;;;3.60;82.90;;;3.43;56.72;94607.59;5003873;28;20500;-57
2021/12/01 05:14:02;;;;;;;2.30;2.10;;;3.70;81.20;;;3.46;57.59;94622.16;4996857;28;20469;-58
2021/12/01 05:16:29;;;;;;;1.93;1.40;;;3.70;81.30;;;3.46;57.35;94622.16;4997951;28;20474;-55
2021/12/01 05:18:56;;;;;;;3.70;2.30;;;3.70;81.40;;;3.47;56.29;94616.00;5004749;28;20454;-57
2021/12/01 05:21:24;;;;;;;1.80;1.70;;;3.70;80.90;;;3.47;56.63;94619.44;5004589;28;21057;-57
2021/12/01 05:23:51;;;;;;;2.30;2.17;;;3.70;81.40;;;3.50;56.97;94618.41;5004260;28;20458;-56
2021/12/01 05:26:19;;;;;;;1.67;1.57;;;3.70;81.40;;;3.54;57.23;94630.25;5002130;28;20999;-58
2021/12/01 05:28:48;;;;;;;1.93;1.73;;;3.80;81.70;;;3.57;56.52;94625.69;5004146;28;20466;-56
2021/12/01 05:31:15;;;;;;;2.90;1.77;;;3.80;80.60;;;3.61;56.33;94620.28;4998342;28;20521;-55
2021/12/01 05:33:42;;;;;;;7.17;1.93;;;3.90;80.70;;;3.65;56.63;94619.97;4995130;28;20884;-55
2021/12/01 05:36:10;;;;;;;2.70;1.73;;;3.90;80.40;;;3.66;56.37;94619.03;4995728;28;21020;-60
2021/12/01 05:38:37;;;;;;;4.60;3.00;;;3.90;79.70;;;3.66;56.63;94628.63;4995554;28;20532;-56
2021/12/01 05:41:05;;;;;;;3.83;3.53;;;3.90;79.90;;;3.65;56.36;94624.34;5001188;28;20494;-57
2021/12/01 05:43:32;;;;;;;4.13;2.50;;;3.90;79.20;;;3.63;55.90;94623.63;5003975;28;20568;-59
2021/12/01 05:46:01;;;;;;;4.90;2.30;;;3.90;79.70;;;3.62;56.38;94630.56;5000821;28;20481;-59
2021/12/01 05:48:28;;;;;;;2.90;2.60;;;3.90;79.10;;;3.61;56.00;94623.72;4998229;28;20537;-55
2021/12/01 05:50:56;;;;;;;2.57;2.37;;;3.90;79.60;;;3.63;56.32;94629.66;5004715;28;20481;-58
2021/12/01 05:53:23;;;;;;;3.20;2.90;;;3.90;79.90;;;3.66;56.66;94624.25;5000130;28;20514;-59
2021/12/01 05:55:51;;;;;;;3.97;2.30;;;3.90;80.10;;;3.71;56.86;94631.72;4999923;28;20477;-59
2021/12/01 05:58:18;;;;;;;2.50;2.20;;;4.00;80.10;;;3.75;56.95;94622.78;4995126;28;20451;-58
2021/12/01 06:00:46;;;;;;;8.23;1.83;;;4.00;80.50;;;3.78;56.36;94627.78;5004683;28;20576;-58
2021/12/01 06:03:14;;;;;;;1.90;1.80;;;4.00;79.60;;;3.84;55.90;94623.91;4996585;28;20462;-57
2021/12/01 06:05:43;;;;;;;2.70;1.80;;;4.10;79.30;;;3.92;56.11;94635.47;4997043;28;20473;-59
2021/12/01 06:08:10;;;;;;;3.20;2.07;;;4.20;80.40;;;4.25;56.36;94635.84;4998055;28;20516;-57
2021/12/01 06:10:38;;;;;;;2.73;2.10;;;4.40;80.60;;;4.75;55.05;94620.16;5001704;28;20496;-59
2021/12/01 06:13:05;;;;;;;4.00;1.97;;;4.90;79.20;;;5.22;54.14;94621.09;5001968;28;20537;-59
2021/12/01 06:15:33;;;;;;;3.83;2.67;;;5.30;77.40;;;5.58;52.57;94621.88;5001601;28;20605;-55
2021/12/01 06:18:00;;;;;;;7.10;4.10;;;5.70;75.30;;;6.00;52.61;94616.97;5002998;28;20457;-59
2021/12/01 06:20:28;;;;;;;3.13;2.27;;;6.10;75.70;;;6.22;51.80;94623.97;5002103;28;20498;-59
2021/12/01 06:22:57;;;;;;;4.70;2.63;;;6.30;73.40;;;6.17;51.65;94626.09;4999773;28;20521;-59
2021/12/01 06:25:24;;;;;;;4.83;2.97;;;6.40;72.20;;;6.07;51.98;94635.59;5001937;28;20819;-56
2021/12/01 06:27:51;;;;;;;2.97;2.57;;;6.30;72.60;;;6.30;51.82;94644.25;5000756;28;20481;-59
2021/12/01 06:30:21;;;;;;;4.60;2.30;;;6.50;71.90;;;6.95;50.78;94652.25;5002353;28;20886;-60
2021/12/01 06:32:48;;;;;;;11.13;2.53;;;7.10;71.40;;;7.79;50.41;94652.38;4999649;28;20456;-59
2021/12/01 06:35:16;;;;;;;3.53;3.17;;;7.90;71.50;;;8.43;49.79;94651.31;5002115;28;20517;-57
2021/12/01 06:37:44;;;;;;;5.57;3.93;;;8.60;70.90;;;9.12;48.37;94647.09;5001051;28;20999;-60
2021/12/01 06:40:13;;;;;;;8.40;3.17;;;9.40;67.60;;;9.95;46.06;94649.25;5006303;28;20525;-56
2021/12/01 06:42:40;;;;;;;4.03;3.30;;;10.20;62.90;;;10.79;46.78;94659.94;5005035;28;20845;-55
2021/12/01 06:45:09;;;;;;;6.27;4.77;;;11.10;63.90;;;11.55;42.17;94640.31;5006392;28;20505;-58
2021/12/01 06:47:36;;;;;;;8.70;3.73;;;11.90;56.40;;;12.27;44.53;94645.47;5007393;28;20466;-60
2021/12/01 06:50:05;;;;;;;8.53;4.77;;;12.60;59.10;;;12.90;43.43;94658.31;5002946;28;20496;-56
2021/12/01 06:52:32;;;;;;;4.87;3.80;;;13.20;57.70;;;13.51;42.69;94654.69;5002944;28;20511;-57
2021/12/01 06:55:02;;;;;;;8.70;4.77;;;13.80;56.50;;;14.02;41.31;94659.84;5002944;28;20997;-56
2021/12/01 06:57:29;;;;;;;7.67;5.00;;;14.30;53.70;;;14.44;39.45;94658.81;5000207;28;20446;-55
2021/12/01 06:59:57;;;;;;;12.70;5.37;;;14.70;50.40;;;14.63;34.48;94671.69;5007825;28;20515;-60
2021/12/01 07:02:24;;;;;;;6.87;4.33;;;14.80;44.80;;;14.68;36.19;94681.75;5003117;28;20469;-56
2021/12/01 07:04:51;;;;;;;9.30;3.73;;;15.00;45.00;;;14.86;35.62;94673.59;5006599;28;20457;-57
2021/12/01 07:07:19;;;;;;;7.50;3.20;;;15.20;45.20;;;15.14;35.52;94681.13;5003310;28;20465;-59
2021/12/01 07:09:50;;;;;;;6.30;4.60;;;15.50;45.70;;;15.46;34.82;94679.28;4999347;28;20459;-55
2021/12/01 07:12:18;;;;;;;8.90;4.30;;;15.80;43.70;;;15.64;36.70;94681.66;5003969;28;20556;-56
2021/12/01 07:14:46;;;;;;;10.73;3.93;;;16.00;45.20;;;15.80;33.53;94670.16;5003240;28;20803;-59
2021/12/01 07:17:14;;;;;;;9.97;4.13;;;16.30;42.40;;;16.07;37.20;94666.94;4998073;28;20467;-58
2021/12/01 07:19:42;;;;;;;7.70;4.30;;;16.50;47.10;;;16.05;37.37;94661.00;4999858;28;20937;-56
2021/12/01 07:22:09;;;;;;;8.13;3.40;;;16.50;47.50;;;15.62;36.81;94670.41;5006844;28;20861;-59
2021/12/01 07:24:36;;;;;;;4.13;3.50;;;16.20;45.70;;;14.98;37.71;94672.25;5007485;28;20457;-55
2021/12/01 07:27:04;;;;;;;5.47;4.30;;;15.60;46.30;;;14.20;38.68;94665.78;5007682;28;20478;-56
2021/12/01 07:29:34;;;;;;;7.47;4.73;;;14.90;46.90;;;13.62;39.25;94671.06;5004791;28;20541;-60
2021/12/01 07:32:02;;;;;;;6.83;4.00;;;14.30;47.30;;;13.53;39.60;94673.88;5004800;28;20859;-60
2021/12/01 07:34:29;;;;;;;7.00;4.00;;;14.00;48.60;;;13.68;38.57;94672.25;5002636;28;20454;-59
2021/12/01 07:36:56;;;;;;;6.83;3.67;;;13.90;47.80;;;13.71;36.91;94666.63;4995661;28;20497;-59
2021/12/01 07:39:23;;;;;;;8.00;3.70;;;13.90;46.60;;;14.04;38.42;94660.53;5003562;28;20450;-58
2021/12/01 07:41:51;;;;;;;8.60;3.53;;;14.10;47.90;;;14.63;38.69;94676.97;5001343;28;20488;-56
2021/12/01 07:44:18;;;;;;;6.97;3.23;;;14.50;48.30;;;15.06;37.39;94671.38;5000680;28;20546;-61
2021/12/01 07:46:48;;;;;;;11.37;4.37;;;14.70;47.00;;;14.84;37.38;94672.94;5005966;28;20479;-59
2021/12/01 07:49:15;;;;;;;6.93;4.90;;;14.70;46.90;;;14.28;37.54;94673.72;5005360;28;20457;-59
2021/12/01 07:51:43;;;;;;;4.03;3.30;;;14.40;46.70;;;13.71;38.79;94674.56;5000932;28;20501;-60
2021/12/01 07:54:10;;;;;;;4.53;3.23;;;13.90;47.20;;;13.27;38.52;94677.41;5000809;28;20462;-57
2021/12/01 07:56:37;;;;;;;3.83;3.43;;;13.50;47.40;;;13.00;39.79;94687.22;4999763;28;20485;-57
2021/12/01 07:59:05;;;;;;;6.37;4.67;;;13.20;49.00;;;12.79;40.20;94689.44;4994893;28;20454;-60
2021/12/01 08:01:32;;;;;;;4.30;3.03;;;12.90;49.00;;;12.57;40.69;94680.28;4998628;28;20489;-55
2021/12/01 08:04:01;;;;;;;5.83;3.10;;;12.70;49.90;;;12.30;41.21;94680.28;4999031;28;20541;-59
2021/12/01 08:06:30;;;;;;;5.30;3.60;;;12.50;50.20;;;11.99;40.38;94685.16;5002477;28;20469;-59
2021/12/01 08:09:00;;;;;;;4.77;3.20;;;12.20;49.60;;;11.65;41.07;94691.13;5002289;28;20883;-56
2021/12/01 08:11:27;;;;;;;2.80;2.60;;;11.80;49.70;;;11.37;41.74;94691.19;5007298;28;20505;-56
2021/12/01 08:13:54;;;;;;;3.53;3.20;;;11.50;50.40;;;11.09;42.27;94700.88;5007763;28;20511;-59
2021/12/01 08:16:22;;;;;;;7.00;6.40;;;11.20;51.10;;;10.81;42.76;94710.59;5002739;28;20524;-59
2021/12/01 08:18:51;;;;;;;6.47;3.50;;;11.00;51.90;;;10.58;43.39;94695.16;5004744;28;20485;-59
2021/12/01 08:21:20;;;;;;;6.40;2.43;;;10.80;52.40;;;10.42;43.50;94701.03;5002701;28;20458;-60
2021/12/01 08:23:48;;;;;;;4.13;2.07;;;10.50;53.10;;;10.36;43.72;94698.97;5004444;28;20576;-60
2021/12/01 08:26:15;;;;;;;2.27;2.10;;;10.50;53.60;;;10.48;43.69;94702.28;4999963;28;20465;-56
2021/12/01 08:28:45;;;;;;;10.60;3.10;;;10.50;53.80;;;10.77;43.74;94708.25;5002810;28;20450;-60
2021/12/01 08:31:13;;;;;;;3.20;2.70;;;10.70;54.00;;;11.10;43.54;94700.75;5004215;28;20516;-54
2021/12/01 08:33:40;;;;;;;6.00;5.43;;;11.00;54.20;;;11.43;43.51;94695.84;5004091;28;20457;-55
2021/12/01 08:36:08;;;;;;;5.03;3.00;;;11.30;54.40;;;11.82;43.21;94695.53;5005364;28;20485;-59
2021/12/01 08:38:37;;;;;;;3.60;2.70;;;11.70;54.60;;;12.57;42.87;94691.66;5006981;28;20946;-60
2021/12/01 08:41:04;;;;;;;2.93;2.53;;;12.40;53.80;;;13.50;40.93;94685.59;5002611;28;20505;-55
2021/12/01 08:43:31;;;;;;;2.30;2.10;;;13.10;52.80;;;14.40;40.29;94689.25;5002965;28;20453;-58
2021/12/01 08:45:59;;;;;;;6.20;2.27;;;14.00;52.00;;;15.21;38.94;94696.16;5000036;28;20998;-57
2021/12/01 08:48:27;;;;;;;2.70;2.50;;;14.70;50.70;;;15.73;35.59;94686.72;5003968;28;20955;-57
2021/12/01 08:50:56;;;;;;;2.50;2.30;;;15.20;46.20;;;15.88;36.08;94696.59;5000088;28;20493;-59
2021/12/01 08:53:23;;;;;;;5.23;3.17;;;15.60;46.50;;;16.12;36.69;94690.28;4998666;28;20776;-60
2021/12/01 08:55:52;;;;;;;5.47;4.50;;;15.90;47.00;;;16.52;36.68;94693.59;5007437;28;20477;-60
2021/12/01 08:58:19;;;;;;;10.60;4.40;;;16.30;47.20;;;16.92;34.61;94696.84;5005576;28;20872;-56
2021/12/01 09:00:48;;;;;;;6.00;4.57;;;16.60;44.10;;;17.12;32.46;94694.47;5006191;28;20895;-59
2021/12/01 09:03:17;;;;;;;7.67;4.33;;;16.80;41.80;;;16.99;33.76;94694.28;5005201;28;20460;-59
2021/12/01 09:05:45;;;;;;;13.70;6.70;;;16.70;42.50;;;16.71;35.45;94694.88;5005209;28;20503;-55
2021/12/01 09:08:13;;;;;;;9.07;5.37;;;16.60;44.70;;;16.84;35.87;94697.75;5004175;28;20866;-55
2021/12/01 09:10:40;;;;;;;6.50;4.90;;;16.60;46.00;;;17.25;35.60;94699.13;4997255;28;20891;-55
2021/12/01 09:13:09;;;;;;;7.20;4.33;;;16.80;45.60;;;17.56;33.33;94698.06;5003636;28;20451;-57
2021/12/01 09:15:37;;;;;;;20.13;6.73;;;17.20;43.80;;;17.88;33.49;94698.63;5002247;28;20473;-59
2021/12/01 09:18:05;;;;;;;12.87;6.37;;;17.60;43.20;;;18.28;33.43;94694.50;4999365;28;20508;-55
2021/12/01 09:20:32;;;;;;;6.10;4.90;;;17.90;43.80;;;18.69;33.21;94700.97;5003183;28;20477;-55
2021/12/01 09:23:01;;;;;;;8.13;4.73;;;18.30;41.60;;;19.02;32.42;94704.91;4999795;28;20454;-56
2021/12/01 09:25:28;;;;;;;4.33;3.20;;;18.60;42.40;;;19.32;33.07;94706.28;5000694;28;20889;-60
2021/12/01 09:27:56;;;;;;;3.63;3.33;;;18.90;42.40;;;19.62;29.40;94703.34;5001673;28;20454;-55
2021/12/01 09:30:25;;;;;;;6.57;3.60;;;19.20;38.80;;;19.82;30.55;94695.41;4999165;28;21015;-60
2021/12/01 09:32:52;;;;;;;5.13;3.13;;;19.40;38.40;;;20.00;31.56;94712.69;4993461;28;20834;-61
2021/12/01 09:35:19;;;;;;;4.50;3.50;;;19.60;40.60;;;20.27;31.36;94712.75;4996544;28;20487;-59
2021/12/01 09:37:47;;;;;;;4.90;3.77;;;19.80;40.40;;;20.56;30.47;94703.53;4997626;28;20447;-56
2021/12/01 09:40:17;;;;;;;9.97;3.90;;;20.10;39.50;;;20.72;29.56;94704.97;4998309;28;20462;-55
2021/12/01 09:42:46;;;;;;;5.03;3.97;;;20.20;37.00;;;20.63;27.72;94696.31;5001145;28;20959;-56
2021/12/01 09:45:13;;;;;;;4.57;2.63;;;20.20;35.70;;;20.54;28.29;94697.56;5005439;28;20982;-61
2021/12/01 09:47:42;;;;;;;5.60;3.30;;;20.20;36.50;;;20.48;28.86;94693.03;5002498;28;20461;-62
2021/12/01 09:50:10;;;;;;;4.07;2.80;;;20.10;36.80;;;20.39;29.23;94687.91;5005529;28;20461;-55
2021/12/01 09:52:38;;;;;;;5.00;3.50;;;20.00;36.50;;;20.36;30.02;94693.66;4999711;28;20496;-59
2021/12/01 09:55:06;;;;;;;11.60;4.20;;;19.90;37.80;;;20.40;27.83;94692.22;5004790;28;20453;-60
2021/12/01 09:57:34;;;;;;;8.10;4.07;;;19.90;35.50;;;20.27;27.92;94686.88;4999400;28;20470;-60
2021/12/01 10:00:01;;;;;;;7.70;4.43;;;19.90;35.50;;;20.08;28.09;94693.00;4998961;28;20449;-59
2021/12/01 10:02:29;;;;;;;4.97;4.07;;;19.60;35.60;;;19.94;28.87;94692.16;4991617;28;20464;-58
2021/12/01 10:04:58;;;;;;;7.10;4.50;;;19.60;36.20;;;19.96;28.74;94696.28;5008084;28;20455;-57
2021/12/01 10:07:32;;;;;;;5.27;4.00;;;19.60;37.00;;;20.01;28.61;94699.16;5002868;28;20457;-61
2021/12/01 10:10:07;;;;;;;6.20;4.27;;;19.50;36.40;;;20.01;28.90;94701.00;5007548;28;20453;-60
2021/12/01 10:12:45;;;;;;;4.93;3.90;;;19.60;36.50;;;20.02;29.13;94700.81;5001064;28;20544;-60
2021/12/01 10:15:13;;;;;;;10.23;4.60;;;19.50;37.00;;;20.00;29.65;94697.53;5009722;28;20457;-57
2021/12/01 10:17:40;;;;;;;8.40;4.40;;;19.50;37.00;;;20.14;28.63;94692.19;5007326;28;20450;-60
2021/12/01 10:20:18;;;;;;;16.03;4.07;;;19.70;36.50;;;20.38;29.75;94693.44;5010099;28;20453;-61
2021/12/01 10:23:06;;;;;;;6.03;4.43;;;19.90;37.90;;;20.72;29.06;94675.59;5003996;28;20515;-55
2021/12/01 10:25:34;;;;;;;10.07;3.87;;;20.20;38.00;;;21.01;29.60;94676.16;5001640;28;20566;-61
2021/12/01 10:28:01;;;;;;;3.60;3.30;;;20.60;37.80;;;21.27;28.91;94678.75;5007195;28;20462;-60
2021/12/01 10:30:40;;;;;;;9.23;2.80;;;20.80;37.10;;;21.49;27.42;94673.97;5008463;28;20480;-60
2021/12/01 10:33:11;;;;;;;4.70;2.83;;;21.10;35.20;;;21.68;27.29;94663.38;5009737;28;20453;-56
2021/12/01 10:35:40;;;;;;;3.70;3.40;;;21.20;34.90;;;21.72;26.72;94671.78;5007205;28;20477;-61